Time;durP1;ratioP1;P1;durP2;ratioP2;P2;SDS_P1;SDS_P2;PMS_P1;PMS_P2;Temp;Humidity;BMP_temperature;BMP_pressure;BME280_temperature;BME280_humidity;BME280_pressure;Samples;Min_cycle;Max_cycle;Signal;HPM_P1;HPM_P2
2022/06/25 00:01:46;;;;;;;3.22;2.53;;;17.80;99.90;;;;;;5031404;28;20049;-71
2022/06/25 00:06:56;;;;;;;5.93;3.10;;;17.80;99.90;;;;;;5031644;28;20623;-71
2022/06/25 00:09:22;;;;;;;3.25;2.22;;;17.80;99.90;;;;;;5031400;28;20084;-71
2022/06/25 00:14:32;;;;;;;5.22;3.00;;;17.80;99.90;;;;;;5031316;28;20056;-71
2022/06/25 00:16:58;;;;;;;4.47;2.65;;;17.70;99.90;;;;;;5031512;28;20424;-71
2022/06/25 00:19:23;;;;;;;4.78;2.85;;;17.70;99.90;;;;;;5014794;28;20042;-72
2022/06/25 00:21:50;;;;;;;4.13;2.83;;;17.70;99.90;;;;;;4998634;28;20042;-71
2022/06/25 00:24:16;;;;;;;4.13;2.85;;;17.70;99.90;;;;;;5014722;28;20086;-71
2022/06/25 00:26:43;;;;;;;3.25;2.60;;;17.70;99.90;;;;;;5031243;28;20095;-71
2022/06/25 00:29:10;;;;;;;5.25;2.80;;;17.70;99.90;;;;;;5014617;28;20126;-70
2022/06/25 00:31:36;;;;;;;3.92;2.97;;;17.70;99.90;;;;;;4998641;28;20045;-71
2022/06/25 00:34:02;;;;;;;3.30;2.45;;;17.70;99.90;;;;;;5015217;28;20365;-71
2022/06/25 00:36:28;;;;;;;4.15;2.92;;;17.70;99.90;;;;;;5031128;28;20073;-71
2022/06/25 00:38:54;;;;;;;3.97;2.70;;;17.80;99.90;;;;;;5031035;28;20095;-71
2022/06/25 00:41:20;;;;;;;4.15;3.30;;;17.70;99.90;;;;;;4999430;28;20488;-71
2022/06/25 00:43:46;;;;;;;3.58;2.65;;;17.70;99.90;;;;;;5034822;28;20049;-71
2022/06/25 00:46:11;;;;;;;5.72;2.95;;;17.70;99.90;;;;;;5002284;28;20038;-73
2022/06/25 00:48:37;;;;;;;3.00;2.55;;;17.70;99.90;;;;;;5018196;28;20068;-71
2022/06/25 00:51:11;;;;;;;5.93;3.08;;;17.70;99.90;;;;;;5034794;28;20443;-71
2022/06/25 00:53:44;;;;;;;5.35;3.28;;;17.70;99.90;;;;;;5034507;28;20045;-70
2022/06/25 00:56:12;;;;;;;5.05;3.25;;;17.70;99.90;;;;;;5034420;28;20049;-71
2022/06/25 00:58:41;;;;;;;5.47;3.60;;;17.70;99.90;;;;;;5034355;28;20045;-71
2022/06/25 01:01:10;;;;;;;4.32;3.25;;;17.60;99.90;;;;;;5034331;28;20472;-71
2022/06/25 01:03:37;;;;;;;4.15;2.67;;;17.60;99.90;;;;;;5034307;28;20120;-71
2022/06/25 01:06:04;;;;;;;4.05;2.70;;;17.60;99.90;;;;;;5034208;28;20099;-71
2022/06/25 01:08:31;;;;;;;4.40;3.22;;;17.60;99.90;;;;;;5034216;28;20175;-71
2022/06/25 01:10:57;;;;;;;4.80;3.80;;;17.60;99.90;;;;;;5050759;28;20116;-71
2022/06/25 01:13:23;;;;;;;4.63;3.00;;;17.50;99.90;;;;;;5017662;28;20133;-71
2022/06/25 01:15:49;;;;;;;3.85;2.78;;;17.60;99.90;;;;;;5034038;28;20044;-71
2022/06/25 01:18:16;;;;;;;4.30;3.45;;;17.50;99.90;;;;;;5034137;28;20049;-71
2022/06/25 01:20:45;;;;;;;5.40;3.63;;;17.50;99.90;;;;;;5033851;28;20045;-71
2022/06/25 01:23:11;;;;;;;5.20;3.58;;;17.40;99.90;;;;;;5033882;28;20128;-71
2022/06/25 01:25:38;;;;;;;6.10;3.75;;;17.40;99.90;;;;;;5017484;28;20045;-71
2022/06/25 01:28:05;;;;;;;5.45;3.50;;;17.40;99.90;;;;;;5033817;28;20042;-71
2022/06/25 01:30:31;;;;;;;6.85;3.90;;;17.40;99.90;;;;;;5033656;28;20053;-71
2022/06/25 01:32:57;;;;;;;4.55;3.22;;;17.40;99.90;;;;;;5034018;28;20500;-71
2022/06/25 01:35:23;;;;;;;5.10;3.30;;;17.40;99.90;;;;;;5033693;28;20128;-70
2022/06/25 01:37:48;;;;;;;5.82;3.60;;;17.30;99.90;;;;;;5033901;28;20048;-71
2022/06/25 01:40:14;;;;;;;7.90;3.03;;;17.30;99.90;;;;;;5017334;28;20209;-71
2022/06/25 01:42:58;;;;;;;3.83;3.08;;;17.30;99.90;;;;;;5033583;28;20056;-71
2022/06/25 01:45:24;;;;;;;4.75;3.63;;;17.30;99.90;;;;;;5033645;28;20052;-71
2022/06/25 01:47:50;;;;;;;4.53;3.78;;;17.30;99.90;;;;;;5017052;28;20041;-71
2022/06/25 01:50:17;;;;;;;4.97;3.50;;;17.20;99.90;;;;;;5033470;28;20115;-72
2022/06/25 01:52:43;;;;;;;4.63;3.30;;;17.20;99.90;;;;;;5016813;28;20160;-71
2022/06/25 01:55:09;;;;;;;5.95;3.42;;;17.20;99.90;;;;;;5033442;28;20564;-71
2022/06/25 01:57:35;;;;;;;5.25;3.47;;;17.20;99.90;;;;;;5033407;28;20087;-71
2022/06/25 02:00:07;;;;;;;4.60;3.58;;;17.10;99.90;;;;;;5033254;28;20073;-71
2022/06/25 02:02:32;;;;;;;4.65;3.17;;;17.10;99.90;;;;;;5033529;28;20042;-72
2022/06/25 02:04:58;;;;;;;5.95;3.85;;;17.10;99.90;;;;;;5033391;28;20053;-71
2022/06/25 02:07:24;;;;;;;4.90;3.58;;;17.10;99.90;;;;;;5033099;28;20034;-71
2022/06/25 02:09:49;;;;;;;6.28;3.92;;;17.00;99.90;;;;;;5016889;28;20091;-71
2022/06/25 02:12:15;;;;;;;5.45;3.35;;;17.00;99.90;;;;;;5033299;28;20045;-72
2022/06/25 02:14:41;;;;;;;6.10;3.90;;;17.00;99.90;;;;;;5032987;28;20475;-71
2022/06/25 02:17:07;;;;;;;6.20;3.40;;;17.00;99.90;;;;;;5032932;28;20044;-72
2022/06/25 02:19:32;;;;;;;5.10;3.50;;;17.00;99.90;;;;;;5016299;28;20095;-71
2022/06/25 02:21:58;;;;;;;5.35;3.70;;;17.00;99.90;;;;;;5032851;28;20493;-72
2022/06/25 02:24:24;;;;;;;4.65;3.55;;;17.00;99.90;;;;;;5016398;28;20404;-71
2022/06/25 02:26:49;;;;;;;6.18;4.20;;;16.90;99.90;;;;;;5032827;28;20049;-71
2022/06/25 02:29:15;;;;;;;5.47;3.70;;;16.90;99.90;;;;;;5016393;28;20049;-72
2022/06/25 02:31:41;;;;;;;4.55;3.65;;;16.90;99.90;;;;;;5049366;28;20056;-71
2022/06/25 02:34:06;;;;;;;5.78;4.13;;;16.80;99.90;;;;;;5032933;28;20041;-71
2022/06/25 02:36:32;;;;;;;6.38;4.05;;;16.80;99.90;;;;;;5032845;28;20099;-72
2022/06/25 02:38:57;;;;;;;6.90;3.97;;;16.80;99.90;;;;;;5016343;28;20049;-72
2022/06/25 02:41:23;;;;;;;7.97;4.05;;;16.80;99.90;;;;;;5032702;28;20041;-72
2022/06/25 02:43:49;;;;;;;5.35;3.72;;;16.80;99.90;;;;;;5032637;28;20550;-71
2022/06/25 02:46:14;;;;;;;6.80;4.38;;;16.80;99.90;;;;;;5015979;28;20038;-72
2022/06/25 02:48:40;;;;;;;5.53;4.22;;;16.60;99.90;;;;;;5015879;28;20034;-72
2022/06/25 02:51:06;;;;;;;7.55;4.45;;;16.70;99.90;;;;;;5016044;28;20140;-71
2022/06/25 02:53:32;;;;;;;9.77;4.55;;;16.70;99.90;;;;;;5033791;28;20034;-72
2022/06/25 02:58:58;;;;;;;8.50;4.20;;;16.70;99.90;;;;;;5032276;28;20098;-71
2022/06/25 03:01:25;;;;;;;6.93;4.43;;;16.70;99.90;;;;;;5032179;28;20050;-71
2022/06/25 03:03:52;;;;;;;5.10;4.32;;;16.70;99.90;;;;;;5031473;28;20046;-71
2022/06/25 03:06:19;;;;;;;6.78;4.10;;;16.70;99.90;;;;;;5033512;28;20439;-71
2022/06/25 03:08:45;;;;;;;5.18;3.90;;;16.70;99.90;;;;;;5032135;28;20034;-71
2022/06/25 03:11:11;;;;;;;6.25;4.55;;;16.70;99.90;;;;;;5031877;28;20048;-71
2022/06/25 03:13:37;;;;;;;7.35;4.90;;;16.70;99.90;;;;;;5032158;28;20033;-71
2022/06/25 03:16:04;;;;;;;6.57;4.47;;;16.70;99.90;;;;;;5031861;28;20038;-71
2022/06/25 03:18:30;;;;;;;4.85;3.72;;;16.70;99.90;;;;;;5032167;28;20120;-72
2022/06/25 03:20:56;;;;;;;6.75;5.07;;;16.70;99.90;;;;;;5031678;28;20050;-71
2022/06/25 03:23:22;;;;;;;6.93;4.57;;;16.70;99.90;;;;;;5032148;28;20072;-72
2022/06/25 03:25:48;;;;;;;7.40;4.65;;;16.70;99.90;;;;;;5015285;28;20087;-71
2022/06/25 03:28:15;;;;;;;7.85;4.53;;;16.70;99.90;;;;;;5015433;28;20400;-71
2022/06/25 03:30:40;;;;;;;7.35;4.28;;;16.70;99.90;;;;;;5031547;28;20053;-71
2022/06/25 03:33:06;;;;;;;6.75;4.35;;;16.70;99.90;;;;;;5015243;28;20393;-71
2022/06/25 03:35:32;;;;;;;5.07;4.40;;;16.70;99.90;;;;;;5031659;28;20476;-72
2022/06/25 03:37:57;;;;;;;7.50;5.10;;;16.70;99.90;;;;;;5031493;28;20076;-71
2022/06/25 03:40:23;;;;;;;6.10;4.72;;;16.70;99.90;;;;;;5031400;28;20045;-72
2022/06/25 03:42:49;;;;;;;6.75;4.25;;;16.70;99.90;;;;;;5031453;28;20455;-72
2022/06/25 03:45:15;;;;;;;8.57;4.50;;;16.70;99.90;;;;;;5031708;28;20037;-72
2022/06/25 03:47:41;;;;;;;8.95;4.82;;;16.70;99.90;;;;;;5031748;28;20040;-71
2022/06/25 03:50:07;;;;;;;6.40;4.13;;;16.70;99.90;;;;;;5032756;28;20120;-71
2022/06/25 03:52:33;;;;;;;5.85;4.25;;;16.70;99.90;;;;;;5031365;28;20120;-71
2022/06/25 03:54:59;;;;;;;6.45;4.85;;;16.70;99.90;;;;;;5015285;28;20079;-72
2022/06/25 03:57:27;;;;;;;7.28;4.68;;;16.70;99.90;;;;;;5031566;28;20081;-72
2022/06/25 03:59:53;;;;;;;9.52;4.85;;;16.70;99.90;;;;;;5031272;28;20124;-72
2022/06/25 04:02:18;;;;;;;5.85;4.47;;;16.70;99.90;;;;;;5014988;28;20084;-71
2022/06/25 04:04:44;;;;;;;6.53;4.47;;;16.70;99.90;;;;;;5014888;28;20037;-71
2022/06/25 04:07:09;;;;;;;7.35;4.40;;;16.70;99.90;;;;;;5031348;28;20045;-71
2022/06/25 04:09:35;;;;;;;7.82;4.63;;;16.70;99.90;;;;;;5031704;28;20050;-71
2022/06/25 04:12:01;;;;;;;5.45;4.32;;;16.70;99.90;;;;;;5015239;28;20037;-72
2022/06/25 04:14:27;;;;;;;8.00;5.05;;;16.80;99.90;;;;;;5014901;28;20044;-71
2022/06/25 04:16:55;;;;;;;7.70;4.57;;;16.80;99.90;;;;;;5018524;28;20037;-72
2022/06/25 04:19:21;;;;;;;6.05;4.10;;;16.80;99.90;;;;;;5018632;28;20439;-71
2022/06/25 04:21:49;;;;;;;6.72;4.30;;;16.80;99.90;;;;;;5035117;28;20045;-71
2022/06/25 04:24:15;;;;;;;5.22;4.03;;;16.80;99.90;;;;;;5018869;28;20484;-71
2022/06/25 04:26:41;;;;;;;5.75;4.03;;;16.90;99.90;;;;;;5035148;28;20073;-71
2022/06/25 04:29:08;;;;;;;5.05;3.80;;;16.90;99.90;;;;;;5035171;28;20053;-71
2022/06/25 04:31:36;;;;;;;5.18;3.60;;;17.00;99.90;;;;;;5035021;28;20064;-72
2022/06/25 04:34:02;;;;;;;5.85;4.45;;;17.00;99.90;;;;;;5018556;28;20124;-71
2022/06/25 04:36:29;;;;;;;6.05;3.95;;;17.00;99.90;;;;;;5035198;28;20527;-71
2022/06/25 04:38:55;;;;;;;5.30;3.80;;;17.00;99.90;;;;;;5034930;28;20098;-71
2022/06/25 04:41:21;;;;;;;5.35;3.85;;;17.10;99.90;;;;;;5034857;28;20033;-72
2022/06/25 04:43:47;;;;;;;6.75;4.25;;;17.10;99.90;;;;;;5036226;28;20124;-72
2022/06/25 04:46:13;;;;;;;6.07;3.92;;;17.20;99.90;;;;;;5034818;28;20045;-72
2022/06/25 04:48:39;;;;;;;4.78;3.78;;;17.20;99.90;;;;;;5034738;28;20033;-72
2022/06/25 04:51:05;;;;;;;5.47;3.60;;;17.30;99.90;;;;;;5035070;28;20045;-71
2022/06/25 04:53:31;;;;;;;5.93;3.67;;;17.30;99.90;;;;;;5036294;28;20107;-72
2022/06/25 04:55:57;;;;;;;4.50;3.40;;;17.40;99.90;;;;;;5034668;28;20045;-72
2022/06/25 04:58:22;;;;;;;5.32;3.78;;;17.40;99.90;;;;;;5034606;28;20045;-72
2022/06/25 05:00:49;;;;;;;5.38;3.70;;;17.50;99.90;;;;;;5034469;28;20104;-71
2022/06/25 05:03:15;;;;;;;7.35;3.38;;;17.50;99.90;;;;;;5034489;28;20088;-72
2022/06/25 05:05:41;;;;;;;4.93;3.45;;;17.60;99.90;;;;;;5034424;28;20041;-71
2022/06/25 05:08:07;;;;;;;5.03;3.28;;;17.70;99.90;;;;;;5034434;28;20042;-72
2022/06/25 05:10:32;;;;;;;4.80;3.15;;;17.70;99.90;;;;;;5034706;28;20041;-71
2022/06/25 05:13:13;;;;;;;6.78;3.20;;;17.80;99.90;;;;;;5034349;28;20041;-71
2022/06/25 05:15:43;;;;;;;5.60;3.30;;;17.90;99.90;;;;;;5019947;28;20268;-71
2022/06/25 05:18:10;;;;;;;5.43;3.58;;;17.90;99.90;;;;;;5034283;28;20058;-72
2022/06/25 05:20:43;;;;;;;3.50;2.70;;;17.90;99.90;;;;;;5034187;28;20128;-75
2022/06/25 05:23:10;;;;;;;3.60;2.92;;;18.00;99.90;;;;;;5034390;28;20433;-73
2022/06/25 05:25:36;;;;;;;3.63;3.13;;;18.10;99.90;;;;;;5034190;28;20085;-73
2022/06/25 05:28:03;;;;;;;3.72;2.75;;;18.20;99.90;;;;;;5033622;28;20439;-72
2022/06/25 05:30:29;;;;;;;4.75;3.60;;;18.20;99.90;;;;;;5034045;28;20119;-73
2022/06/25 05:32:54;;;;;;;4.97;3.08;;;18.30;99.90;;;;;;5017681;28;20091;-71
2022/06/25 05:35:20;;;;;;;3.42;2.53;;;18.40;99.90;;;;;;5033945;28;20049;-72
2022/06/25 05:37:46;;;;;;;3.85;2.78;;;18.50;99.90;;;;;;5033816;28;20072;-72
2022/06/25 05:40:12;;;;;;;4.05;3.00;;;18.50;99.90;;;;;;5033928;28;20042;-71
2022/06/25 05:42:38;;;;;;;4.28;2.58;;;18.60;99.90;;;;;;5017304;28;20048;-71
2022/06/25 05:45:04;;;;;;;4.00;2.58;;;18.70;99.90;;;;;;5017356;28;20067;-78
2022/06/25 05:47:30;;;;;;;4.13;2.60;;;18.70;99.90;;;;;;5017287;28;20049;-78
2022/06/25 05:49:55;;;;;;;4.00;2.90;;;18.80;99.90;;;;;;5000927;28;20056;-80
2022/06/25 05:52:22;;;;;;;3.47;2.20;;;18.90;99.90;;;;;;4984684;28;20060;-80
2022/06/25 05:54:48;;;;;;;4.50;2.83;;;19.00;99.90;;;;;;5033764;28;20046;-79
2022/06/25 05:57:14;;;;;;;3.03;2.35;;;19.10;99.90;;;;;;5000765;28;20042;-77
2022/06/25 05:59:40;;;;;;;4.20;2.70;;;19.20;99.90;;;;;;5017005;28;20115;-77
2022/06/25 06:02:06;;;;;;;4.32;2.60;;;19.20;99.90;;;;;;5033612;28;20037;-79
2022/06/25 06:04:32;;;;;;;3.58;2.40;;;19.30;99.90;;;;;;5033319;28;20048;-79
2022/06/25 06:06:59;;;;;;;3.53;2.63;;;19.50;99.90;;;;;;5016888;28;20045;-79
2022/06/25 06:09:27;;;;;;;2.92;2.42;;;19.60;99.90;;;;;;5033596;28;20041;-79
2022/06/25 06:11:54;;;;;;;3.92;2.45;;;19.70;99.90;;;;;;5033664;28;20041;-80
2022/06/25 06:14:20;;;;;;;3.30;2.25;;;19.60;99.90;;;;;;5017133;28;20048;-79
2022/06/25 06:16:46;;;;;;;3.25;2.35;;;19.80;99.90;;;;;;5033468;28;20037;-80
2022/06/25 06:19:12;;;;;;;4.30;2.22;;;19.80;99.90;;;;;;5016911;28;20037;-79
2022/06/25 06:21:37;;;;;;;2.55;2.22;;;19.90;99.90;;;;;;5033074;28;20136;-79
2022/06/25 06:24:03;;;;;;;3.35;2.30;;;20.10;99.90;;;;;;5016551;28;20041;-77
2022/06/25 06:26:29;;;;;;;3.25;2.25;;;20.20;99.90;;;;;;5032961;28;20041;-77
2022/06/25 06:28:55;;;;;;;3.63;2.72;;;20.20;99.90;;;;;;4999852;28;20033;-77
2022/06/25 06:31:20;;;;;;;3.97;2.03;;;20.30;99.90;;;;;;5033267;28;20134;-78
2022/06/25 06:33:46;;;;;;;2.92;2.05;;;20.40;99.90;;;;;;5049398;28;20045;-77
2022/06/25 06:36:12;;;;;;;3.10;2.20;;;20.40;99.90;;;;;;5016375;28;20412;-81
2022/06/25 06:38:38;;;;;;;3.05;1.95;;;20.30;99.90;;;;;;5015356;28;20128;-77
2022/06/25 06:41:04;;;;;;;2.65;1.80;;;20.40;99.90;;;;;;5032565;28;20042;-75
2022/06/25 06:43:30;;;;;;;2.60;1.77;;;20.40;99.90;;;;;;5032670;28;20052;-77
2022/06/25 06:45:56;;;;;;;5.28;2.10;;;20.50;99.90;;;;;;5016176;28;20052;-76
2022/06/25 06:48:21;;;;;;;2.47;1.60;;;20.60;99.90;;;;;;5000066;28;20033;-76
2022/06/25 06:50:47;;;;;;;2.83;2.05;;;20.60;99.90;;;;;;5016296;28;20124;-77
2022/06/25 06:53:13;;;;;;;2.85;1.80;;;20.70;99.90;;;;;;5032241;28;20083;-77
2022/06/25 06:55:38;;;;;;;3.85;2.10;;;20.70;99.90;;;;;;4999383;28;20547;-77
2022/06/25 06:58:04;;;;;;;3.55;1.98;;;20.90;99.90;;;;;;5032074;28;20041;-76
2022/06/25 07:00:30;;;;;;;2.55;1.73;;;21.00;99.90;;;;;;4999441;28;20045;-77
2022/06/25 07:02:55;;;;;;;3.13;1.85;;;21.10;99.90;;;;;;5015798;28;20038;-79
2022/06/25 07:05:21;;;;;;;3.15;2.13;;;21.10;99.90;;;;;;4999348;28;20077;-79
2022/06/25 07:07:49;;;;;;;1.98;1.40;;;21.20;99.90;;;;;;4999446;28;20488;-78
2022/06/25 07:10:15;;;;;;;2.22;1.33;;;21.30;99.90;;;;;;5016150;28;20045;-78
2022/06/25 07:12:41;;;;;;;1.42;1.20;;;21.30;99.90;;;;;;5015841;28;20480;-82
2022/06/25 07:15:07;;;;;;;2.85;1.60;;;21.30;99.90;;;;;;5015572;28;20051;-88
2022/06/25 07:17:32;;;;;;;2.22;1.42;;;21.30;99.90;;;;;;5015631;28;20128;-73
2022/06/25 07:19:58;;;;;;;6.65;1.85;;;21.40;99.90;;;;;;5031795;28;20124;-82
2022/06/25 07:22:24;;;;;;;2.90;1.38;;;21.40;99.90;;;;;;4999307;28;20033;-82
2022/06/25 07:24:51;;;;;;;2.10;1.38;;;21.50;99.90;;;;;;5015735;28;20038;-79
2022/06/25 07:27:18;;;;;;;3.88;1.80;;;21.60;99.90;;;;;;5031870;28;20091;-81
2022/06/25 07:29:44;;;;;;;5.25;1.67;;;21.70;99.90;;;;;;4999199;28;20060;-81
2022/06/25 07:32:10;;;;;;;3.03;1.70;;;21.70;99.90;;;;;;5016011;28;20432;-81
2022/06/25 07:34:36;;;;;;;1.38;0.77;;;21.80;99.90;;;;;;5016247;28;20037;-82
2022/06/25 07:37:03;;;;;;;3.17;1.40;;;21.90;99.90;;;;;;5034270;28;20484;-83
2022/06/25 07:39:29;;;;;;;3.92;1.13;;;21.90;99.90;;;;;;5032672;28;20038;-83
2022/06/25 07:41:55;;;;;;;2.63;1.38;;;22.00;99.90;;;;;;4998908;28;20044;-83
2022/06/25 07:44:21;;;;;;;1.70;1.30;;;22.10;99.90;;;;;;4999423;28;20049;-83
2022/06/25 07:46:47;;;;;;;2.50;1.52;;;22.20;99.90;;;;;;5015807;28;20049;-83
2022/06/25 07:49:13;;;;;;;2.13;1.23;;;22.20;99.90;;;;;;5031766;28;20033;-84
2022/06/25 07:51:57;;;;;;;3.47;1.10;;;22.30;99.90;;;;;;5015378;28;20609;-87
2022/06/25 07:54:29;;;;;;;1.48;1.10;;;22.30;99.90;;;;;;5032102;28;20053;-85
2022/06/25 07:56:55;;;;;;;1.85;1.10;;;22.40;99.90;;;;;;5032176;28;20041;-86
2022/06/25 07:59:21;;;;;;;2.58;1.10;;;22.40;99.90;;;;;;4999104;28;20037;-86
2022/06/25 08:01:47;;;;;;;4.38;1.30;;;22.40;99.90;;;;;;5015288;28;20041;-85
2022/06/25 08:04:13;;;;;;;2.22;0.98;;;22.50;99.90;;;;;;5031461;28;20408;-84
2022/06/25 08:06:41;;;;;;;2.75;1.30;;;22.50;99.90;;;;;;5031491;28;20400;-85
2022/06/25 08:09:08;;;;;;;1.73;1.08;;;22.50;99.90;;;;;;5015784;28;20041;-81
2022/06/25 08:11:34;;;;;;;2.33;1.10;;;22.60;99.90;;;;;;5015478;28;20128;-82
2022/06/25 08:14:00;;;;;;;1.63;0.80;;;22.70;99.90;;;;;;5015374;28;20136;-74
2022/06/25 08:16:26;;;;;;;1.98;1.08;;;22.50;99.90;;;;;;5034391;28;20480;-72
2022/06/25 08:18:52;;;;;;;2.28;1.00;;;22.80;99.90;;;;;;5014886;28;20045;-73
2022/06/25 08:21:18;;;;;;;1.60;0.95;;;22.80;99.90;;;;;;5031147;28;20045;-74
2022/06/25 08:23:44;;;;;;;1.50;0.90;;;22.90;99.90;;;;;;5031306;28;20033;-79
2022/06/25 08:26:10;;;;;;;1.88;1.08;;;22.90;99.90;;;;;;5014854;28;20037;-74
2022/06/25 08:28:36;;;;;;;0.75;0.60;;;22.90;99.90;;;;;;5015075;28;20577;-73
2022/06/25 08:31:05;;;;;;;2.75;0.95;;;23.00;99.90;;;;;;5030955;28;20057;-77
2022/06/25 08:33:31;;;;;;;1.30;0.90;;;23.10;99.90;;;;;;5014676;28;20045;-75
2022/06/25 08:35:57;;;;;;;2.17;1.20;;;23.10;99.90;;;;;;5014628;28;20131;-78
2022/06/25 08:38:23;;;;;;;1.90;0.95;;;23.20;99.90;;;;;;5014970;28;20048;-76
2022/06/25 08:40:50;;;;;;;2.08;1.20;;;23.20;99.90;;;;;;5014655;28;20124;-73
2022/06/25 08:43:15;;;;;;;0.85;0.73;;;23.20;99.90;;;;;;5031310;28;20037;-73
2022/06/25 08:45:41;;;;;;;1.30;0.88;;;23.20;99.90;;;;;;5014675;28;20041;-72
2022/06/25 08:48:13;;;;;;;4.00;0.80;;;23.20;99.90;;;;;;5030986;28;20385;-73
2022/06/25 08:50:40;;;;;;;4.57;1.10;;;23.30;99.90;;;;;;5031012;28;20042;-72
2022/06/25 08:53:07;;;;;;;1.20;0.85;;;23.10;99.90;;;;;;5014817;28;20056;-73
2022/06/25 08:55:40;;;;;;;2.10;0.98;;;23.20;99.90;;;;;;5031018;28;20046;-73
2022/06/25 08:58:07;;;;;;;1.38;0.63;;;23.20;99.90;;;;;;5030984;28;20037;-73
2022/06/25 09:00:35;;;;;;;1.27;0.70;;;23.20;99.90;;;;;;5030888;28;20091;-78
2022/06/25 09:03:03;;;;;;;0.82;0.77;;;23.10;99.90;;;;;;5033074;28;20041;-74
2022/06/25 09:05:31;;;;;;;1.55;1.00;;;23.20;99.90;;;;;;5018475;28;20052;-79
2022/06/25 09:08:00;;;;;;;0.75;0.73;;;23.20;99.90;;;;;;5018332;28;20037;-79
2022/06/25 09:10:27;;;;;;;1.90;0.80;;;23.30;99.90;;;;;;5018142;28;20041;-80
2022/06/25 09:12:54;;;;;;;2.72;0.65;;;23.30;99.90;;;;;;5002208;28;20040;-81
2022/06/25 09:15:23;;;;;;;1.23;0.98;;;23.30;99.90;;;;;;5018169;28;20080;-78
2022/06/25 09:17:52;;;;;;;2.22;1.00;;;23.40;99.90;;;;;;5035772;28;20120;-78
2022/06/25 09:20:22;;;;;;;1.23;0.90;;;23.30;99.90;;;;;;5017949;28;20507;-79
2022/06/25 09:23:05;;;;;;;1.15;0.65;;;23.20;99.90;;;;;;5034322;28;20033;-78
2022/06/25 09:25:33;;;;;;;0.90;0.68;;;23.20;99.90;;;;;;5034256;28;20045;-78
2022/06/25 09:27:59;;;;;;;1.15;0.75;;;23.20;99.90;;;;;;5034231;28;20041;-79
2022/06/25 09:30:30;;;;;;;1.80;1.10;;;23.20;99.90;;;;;;5033963;28;20054;-85
2022/06/25 09:33:02;;;;;;;1.30;0.80;;;23.10;99.90;;;;;;5034414;28;20049;-78
2022/06/25 09:35:32;;;;;;;0.57;0.50;;;23.20;99.90;;;;;;5018086;28;20412;-78
2022/06/25 09:38:14;;;;;;;1.60;1.08;;;23.10;99.90;;;;;;5034260;28;20393;-79
2022/06/25 09:40:53;;;;;;;0.63;0.55;;;23.00;99.90;;;;;;5017559;28;20045;-80
2022/06/25 09:43:35;;;;;;;0.77;0.77;;;23.10;99.90;;;;;;5034446;28;20558;-82
2022/06/25 09:46:05;;;;;;;1.63;0.75;;;23.30;99.90;;;;;;5034636;28;20038;-82
2022/06/25 09:48:33;;;;;;;;;;;23.40;99.90;;;;;;5034347;28;20040;-82
2022/06/25 09:51:14;;;;;;;0.80;0.60;;;23.40;99.90;;;;;;5033856;28;19957;-81
2022/06/25 09:53:54;;;;;;;2.75;0.98;;;23.40;99.90;;;;;;5017335;28;20049;-81
2022/06/25 09:56:22;;;;;;;0.77;0.55;;;23.50;99.90;;;;;;5034038;28;20570;-86
2022/06/25 09:58:49;;;;;;;0.88;0.60;;;23.70;99.90;;;;;;5017420;28;20079;-78
2022/06/25 10:01:17;;;;;;;0.60;0.50;;;23.60;99.90;;;;;;5033522;28;20108;-76
2022/06/25 10:03:44;;;;;;;1.10;0.85;;;23.50;99.90;;;;;;5001053;28;20048;-75
2022/06/25 10:06:15;;;;;;;0.98;0.68;;;23.50;99.90;;;;;;5033480;28;20046;-77
2022/06/25 10:08:47;;;;;;;1.00;0.65;;;23.40;99.90;;;;;;5016965;28;20060;-81
2022/06/25 10:11:14;;;;;;;1.27;0.80;;;23.40;99.90;;;;;;5016881;28;20045;-80
2022/06/25 10:13:41;;;;;;;1.65;0.75;;;23.50;99.90;;;;;;5033087;28;20075;-79
2022/06/25 10:16:08;;;;;;;0.70;0.70;;;23.50;99.90;;;;;;5033174;28;20056;-72
2022/06/25 10:18:36;;;;;;;1.52;0.95;;;23.50;99.90;;;;;;5017081;28;20048;-72
2022/06/25 10:21:02;;;;;;;1.40;0.75;;;23.50;99.90;;;;;;5016504;28;20056;-72
2022/06/25 10:23:29;;;;;;;1.00;0.80;;;23.60;99.90;;;;;;5016483;28;20034;-73
2022/06/25 10:25:55;;;;;;;1.27;0.80;;;23.60;99.90;;;;;;5016650;28;20044;-72
2022/06/25 10:28:28;;;;;;;0.95;0.82;;;23.90;99.90;;;;;;5000567;28;20083;-78
2022/06/25 10:30:58;;;;;;;2.10;1.00;;;24.00;99.90;;;;;;5033411;28;20520;-79
2022/06/25 10:33:35;;;;;;;1.42;0.90;;;23.90;99.90;;;;;;5033286;28;20059;-79
2022/06/25 10:36:04;;;;;;;1.50;0.90;;;24.00;99.90;;;;;;5017525;28;20514;-80
2022/06/25 10:38:30;;;;;;;1.55;0.80;;;24.10;99.90;;;;;;5035318;28;20104;-84
2022/06/25 10:43:58;;;;;;;1.70;0.90;;;24.30;99.90;;;;;;5034536;28;20076;-85
2022/06/25 10:46:37;;;;;;;1.30;1.10;;;24.40;99.90;;;;;;5033783;28;20041;-87
2022/06/25 10:49:17;;;;;;;2.90;0.85;;;24.40;99.90;;;;;;5035213;28;20044;-85
2022/06/25 10:51:47;;;;;;;;;;;24.50;99.90;;;;;;5033433;28;20103;-89
2022/06/25 10:54:33;;;;;;;1.20;0.80;;;24.50;99.90;;;;;;5033254;28;19975;-88
2022/06/25 10:57:00;;;;;;;1.92;1.30;;;24.60;99.90;;;;;;5016769;28;20057;-86
2022/06/25 10:59:34;;;;;;;0.85;0.60;;;24.40;99.90;;;;;;5033591;28;20080;-82
2022/06/25 11:02:06;;;;;;;0.77;0.70;;;24.10;99.90;;;;;;5017571;28;20042;-82
2022/06/25 11:04:32;;;;;;;1.35;0.80;;;24.00;99.90;;;;;;5018225;28;20046;-83
2022/06/25 11:07:19;;;;;;;1.55;0.85;;;23.80;99.90;;;;;;5032739;28;20079;-83
2022/06/25 11:10:00;;;;;;;1.23;0.68;;;23.80;99.90;;;;;;5016382;28;20151;-85
2022/06/25 11:12:27;;;;;;;0.88;0.75;;;24.00;99.90;;;;;;5016545;28;20080;-82
2022/06/25 11:15:09;;;;;;;1.83;0.70;;;23.90;99.90;;;;;;5016209;28;20077;-82
2022/06/25 11:17:35;;;;;;;1.55;0.80;;;24.00;99.90;;;;;;5032834;28;20457;-84
2022/06/25 11:20:09;;;;;;;1.17;0.80;;;24.00;99.90;;;;;;4999864;28;20045;-89
2022/06/25 11:22:53;;;;;;;0.60;0.60;;;24.20;99.90;;;;;;5016118;28;20140;-84
2022/06/25 11:30:49;;;;;;;1.00;0.90;;;24.40;99.90;;;;;;5031876;28;20118;-78
2022/06/25 11:33:15;;;;;;;0.60;0.60;;;24.40;99.90;;;;;;5015635;28;20045;-78
2022/06/25 11:35:44;;;;;;;2.08;0.90;;;24.50;99.90;;;;;;5015591;28;20049;-79
2022/06/25 11:38:18;;;;;;;1.55;0.85;;;24.60;99.90;;;;;;5032128;28;20059;-79
2022/06/25 11:40:44;;;;;;;0.88;0.60;;;24.80;99.90;;;;;;5031823;28;20046;-77
2022/06/25 11:43:10;;;;;;;1.20;0.80;;;24.90;99.90;;;;;;5031935;28;20041;-78
2022/06/25 11:45:56;;;;;;;0.70;0.57;;;25.10;99.90;;;;;;5031743;28;20443;-77
2022/06/25 11:48:26;;;;;;;0.75;0.75;;;25.00;99.90;;;;;;5015247;28;20041;-78
2022/06/25 11:50:59;;;;;;;0.90;0.80;;;24.90;99.90;;;;;;4999080;28;20390;-76
2022/06/25 11:53:25;;;;;;;2.10;0.85;;;24.90;99.90;;;;;;5031594;28;20037;-76
2022/06/25 11:55:58;;;;;;;1.48;0.80;;;24.90;99.90;;;;;;5031610;28;20056;-80
2022/06/25 11:58:26;;;;;;;2.35;0.90;;;24.70;99.90;;;;;;4999186;28;20077;-80
2022/06/25 12:00:58;;;;;;;0.98;0.60;;;24.70;99.90;;;;;;5015464;28;20080;-80
2022/06/25 12:03:25;;;;;;;0.95;0.80;;;24.70;99.90;;;;;;5031833;28;20482;-78
2022/06/25 12:05:52;;;;;;;1.08;0.80;;;24.60;99.90;;;;;;5015280;28;20481;-78
2022/06/25 12:08:20;;;;;;;1.35;0.70;;;24.60;99.90;;;;;;5031481;28;20041;-78
2022/06/25 12:10:47;;;;;;;0.60;0.60;;;24.50;99.90;;;;;;5031815;28;20104;-77
2022/06/25 12:13:17;;;;;;;2.65;0.70;;;24.50;99.90;;;;;;5031741;28;20080;-77
2022/06/25 12:15:43;;;;;;;2.27;0.80;;;24.60;99.90;;;;;;5015742;28;20042;-77
2022/06/25 12:18:09;;;;;;;1.00;0.63;;;24.60;99.90;;;;;;5015046;28;20052;-75
2022/06/25 12:20:34;;;;;;;1.45;0.73;;;24.50;99.90;;;;;;4982974;28;20445;-77
2022/06/25 12:23:01;;;;;;;0.90;0.70;;;24.40;99.90;;;;;;5016727;28;20100;-81
2022/06/25 12:25:32;;;;;;;0.88;0.63;;;24.30;99.90;;;;;;5016376;28;20034;-81
2022/06/25 12:27:58;;;;;;;1.30;0.70;;;24.30;99.90;;;;;;5016673;28;20394;-80
2022/06/25 12:30:26;;;;;;;0.75;0.68;;;24.20;99.90;;;;;;5032356;28;20057;-81
2022/06/25 12:32:53;;;;;;;2.78;0.75;;;24.10;99.90;;;;;;5016463;28;20079;-81
2022/06/25 12:35:26;;;;;;;0.70;0.60;;;24.00;99.90;;;;;;5032785;28;20516;-79
2022/06/25 12:38:01;;;;;;;1.13;0.75;;;23.80;99.90;;;;;;5019423;28;20096;-78
2022/06/25 12:40:28;;;;;;;0.75;0.65;;;23.70;99.90;;;;;;5035208;28;20045;-77
2022/06/25 12:42:58;;;;;;;0.85;0.70;;;23.60;99.90;;;;;;5035537;28;20527;-73
2022/06/25 12:45:25;;;;;;;3.20;0.60;;;23.50;99.90;;;;;;5034954;28;20037;-72
2022/06/25 12:47:52;;;;;;;2.20;0.63;;;23.30;99.90;;;;;;5034808;28;20073;-73
2022/06/25 12:50:33;;;;;;;2.00;0.70;;;23.20;99.90;;;;;;5018522;28;20045;-72
2022/06/25 12:53:15;;;;;;;0.70;0.70;;;23.20;99.90;;;;;;5018279;28;20090;-73
2022/06/25 12:55:47;;;;;;;1.10;0.63;;;23.10;99.90;;;;;;5018668;28;20120;-81
2022/06/25 12:58:13;;;;;;;1.75;0.70;;;23.00;99.90;;;;;;5018500;28;20416;-81
2022/06/25 13:00:43;;;;;;;1.05;0.80;;;23.00;99.90;;;;;;5002720;28;20400;-81
2022/06/25 13:03:09;;;;;;;1.57;0.80;;;23.00;99.90;;;;;;5018866;28;20120;-82
2022/06/25 13:05:36;;;;;;;2.97;0.77;;;23.00;99.90;;;;;;5034915;28;20038;-79
2022/06/25 13:08:02;;;;;;;2.63;0.65;;;23.00;99.90;;;;;;5035079;28;20029;-82